createdAt,value
2018-02-25T00:00:06.652Z,8.33
2018-02-25T00:02:34.136Z,8.03
2018-02-25T00:05:01.745Z,8.23
2018-02-25T00:07:29.276Z,8.53
2018-02-25T00:09:56.763Z,7.90
2018-02-25T00:12:24.574Z,8.20
2018-02-25T00:14:52.055Z,7.10
2018-02-25T00:17:19.699Z,7.27
2018-02-25T00:19:47.214Z,8.47
2018-02-25T00:22:20.026Z,7.37
2018-02-25T00:24:47.514Z,7.73
2018-02-25T00:27:15.005Z,8.07
2018-02-25T00:29:42.599Z,8.47
2018-02-25T00:32:10.140Z,7.97
2018-02-25T00:34:37.701Z,8.17
2018-02-25T00:37:05.197Z,8.20
2018-02-25T00:39:32.684Z,7.87
2018-02-25T00:42:00.230Z,7.60
2018-02-25T00:44:27.753Z,7.67
2018-02-25T00:46:55.275Z,7.17
2018-02-25T00:49:22.764Z,8.00
2018-02-25T00:51:50.266Z,7.93
2018-02-25T00:54:18.198Z,7.60
2018-02-25T00:56:45.897Z,7.63
2018-02-25T00:59:13.561Z,7.53
2018-02-25T01:01:41.075Z,7.57
2018-02-25T01:04:08.568Z,8.60
2018-02-25T01:06:36.082Z,8.97
2018-02-25T01:09:03.916Z,8.73
2018-02-25T01:11:31.632Z,9.27
2018-02-25T01:13:59.254Z,8.73
2018-02-25T01:16:26.773Z,8.07
2018-02-25T01:18:54.258Z,9.67
2018-02-25T01:21:22.858Z,7.90
2018-02-25T01:23:50.717Z,8.30
2018-02-25T01:26:19.208Z,7.47
2018-02-25T01:28:46.814Z,8.20
2018-02-25T01:31:14.307Z,8.60
2018-02-25T01:33:41.774Z,8.70
2018-02-25T01:36:09.277Z,8.87
2018-02-25T01:38:36.762Z,8.27
2018-02-25T01:41:04.304Z,9.27
2018-02-25T01:43:31.750Z,8.27
2018-02-25T01:45:59.310Z,8.57
2018-02-25T01:48:26.790Z,8.43
2018-02-25T01:51:05.112Z,8.77
2018-02-25T01:53:32.585Z,8.87
2018-02-25T01:56:00.032Z,8.47
2018-02-25T01:58:27.506Z,9.60
2018-02-25T02:00:54.968Z,8.70
2018-02-25T02:03:22.446Z,9.10
2018-02-25T02:05:49.936Z,8.50
2018-02-25T02:08:17.486Z,7.73
2018-02-25T02:10:44.952Z,8.97
2018-02-25T02:13:12.415Z,8.57
2018-02-25T02:15:39.880Z,7.70
2018-02-25T02:18:07.336Z,8.37
2018-02-25T02:20:34.867Z,7.73
2018-02-25T02:23:02.331Z,8.20
2018-02-25T02:25:29.862Z,7.80
2018-02-25T02:27:57.317Z,7.43
2018-02-25T02:30:24.850Z,8.90
2018-02-25T02:32:52.342Z,7.53
2018-02-25T02:35:19.808Z,8.50
2018-02-25T02:37:47.291Z,8.00
2018-02-25T02:40:14.742Z,8.30
2018-02-25T02:42:42.242Z,7.00
2018-02-25T02:45:09.780Z,7.90
2018-02-25T02:47:37.277Z,7.83
2018-02-25T02:50:04.791Z,7.77
2018-02-25T02:52:32.313Z,8.07
2018-02-25T02:54:59.818Z,8.47
2018-02-25T02:57:27.364Z,7.90
2018-02-25T02:59:54.866Z,8.00
2018-02-25T03:02:22.306Z,7.23
2018-02-25T03:04:49.767Z,7.00
2018-02-25T03:07:17.280Z,8.90
2018-02-25T03:09:44.776Z,7.33
2018-02-25T03:12:12.335Z,7.70
2018-02-25T03:14:40.721Z,7.37
2018-02-25T03:17:08.793Z,8.10
2018-02-25T03:19:36.367Z,8.30
2018-02-25T03:22:03.856Z,7.30
2018-02-25T03:24:31.328Z,8.17
2018-02-25T03:26:58.799Z,8.73
2018-02-25T03:29:26.296Z,7.43
2018-02-25T03:31:53.776Z,8.13
2018-02-25T03:34:21.328Z,7.53
2018-02-25T03:36:48.787Z,9.47
2018-02-25T03:39:16.362Z,7.80
2018-02-25T03:41:43.849Z,9.17
2018-02-25T03:44:11.306Z,8.40
2018-02-25T03:46:38.891Z,8.80
2018-02-25T03:49:06.835Z,8.60
2018-02-25T03:51:34.309Z,8.73
2018-02-25T03:54:01.836Z,9.07
2018-02-25T03:56:29.349Z,9.37
2018-02-25T03:58:56.821Z,7.83
2018-02-25T04:01:24.316Z,8.40
2018-02-25T04:03:51.845Z,8.80
2018-02-25T04:06:19.458Z,9.00
2018-02-25T04:08:46.963Z,8.43
2018-02-25T04:11:14.549Z,8.80
2018-02-25T04:13:42.015Z,8.67
2018-02-25T04:16:09.475Z,9.33
2018-02-25T04:18:37.038Z,8.77
2018-02-25T04:21:04.502Z,9.17
2018-02-25T04:23:32.037Z,8.63
2018-02-25T04:25:59.479Z,7.77
2018-02-25T04:28:26.939Z,9.10
2018-02-25T04:30:54.401Z,9.30
2018-02-25T04:33:21.943Z,7.97
2018-02-25T04:35:49.450Z,8.03
2018-02-25T04:38:16.997Z,9.27
2018-02-25T04:40:44.471Z,7.30
2018-02-25T04:43:11.931Z,9.07
2018-02-25T04:45:39.465Z,7.60
2018-02-25T04:48:07.058Z,8.13
2018-02-25T04:50:34.540Z,9.23
2018-02-25T04:53:02.035Z,7.93
2018-02-25T04:55:29.492Z,9.43
2018-02-25T04:57:56.955Z,8.03
2018-02-25T05:00:24.425Z,9.17
2018-02-25T05:02:51.959Z,7.70
2018-02-25T05:05:19.398Z,8.13
2018-02-25T05:07:46.885Z,7.00
2018-02-25T05:10:14.473Z,8.40
2018-02-25T05:12:41.962Z,8.13
2018-02-25T05:15:09.459Z,8.63
2018-02-25T05:17:36.935Z,8.20
2018-02-25T05:20:04.551Z,8.43
2018-02-25T05:22:41.730Z,7.47
2018-02-25T05:25:09.233Z,8.20
2018-02-25T05:27:36.765Z,8.00
2018-02-25T05:30:04.477Z,8.33
2018-02-25T05:32:32.283Z,8.60
2018-02-25T05:34:59.898Z,8.07
2018-02-25T05:37:27.501Z,8.93
2018-02-25T05:39:58.595Z,7.77
2018-02-25T05:42:26.111Z,8.63
2018-02-25T05:44:53.586Z,8.07
2018-02-25T05:47:21.035Z,8.37
2018-02-25T05:49:48.575Z,7.63
2018-02-25T05:52:16.235Z,8.17
2018-02-25T05:54:43.768Z,7.30
2018-02-25T05:57:11.182Z,7.70
2018-02-25T05:59:38.713Z,8.17
2018-02-25T06:02:06.191Z,7.87
2018-02-25T06:04:33.680Z,7.47
2018-02-25T06:07:01.165Z,8.43
2018-02-25T06:09:28.634Z,7.80
2018-02-25T06:11:56.328Z,7.90
2018-02-25T06:14:23.824Z,7.73
2018-02-25T06:16:51.318Z,8.50
2018-02-25T06:19:18.780Z,8.03
2018-02-25T06:21:46.274Z,8.43
2018-02-25T06:24:13.779Z,8.33
2018-02-25T06:26:41.256Z,7.67
2018-02-25T06:29:08.708Z,7.97
2018-02-25T06:31:36.250Z,8.03
2018-02-25T06:34:03.724Z,8.17
2018-02-25T06:36:31.205Z,8.30
2018-02-25T06:38:58.860Z,8.00
2018-02-25T06:41:26.382Z,8.23
2018-02-25T06:43:53.890Z,8.47
2018-02-25T06:46:21.502Z,8.57
2018-02-25T06:48:49.063Z,7.80
2018-02-25T06:51:16.736Z,8.40
2018-02-25T06:53:44.458Z,7.87
2018-02-25T06:56:12.047Z,8.93
2018-02-25T06:58:39.539Z,9.80
2018-02-25T07:01:07.741Z,8.60
2018-02-25T07:03:35.237Z,9.27
2018-02-25T07:06:02.752Z,9.60
2018-02-25T07:08:30.309Z,8.50
2018-02-25T07:10:57.866Z,8.33
2018-02-25T07:13:25.348Z,8.20
2018-02-25T07:15:52.837Z,9.07
2018-02-25T07:18:20.321Z,8.50
2018-02-25T07:20:47.776Z,9.50
2018-02-25T07:23:15.233Z,9.43
2018-02-25T07:25:42.708Z,9.07
2018-02-25T07:28:10.252Z,8.90
2018-02-25T07:30:37.690Z,8.47
2018-02-25T07:33:05.196Z,8.30
2018-02-25T07:35:32.639Z,9.57
2018-02-25T07:38:00.245Z,9.67
2018-02-25T07:40:27.772Z,9.33
2018-02-25T07:42:55.218Z,9.00
2018-02-25T07:45:23.046Z,9.13
2018-02-25T07:47:50.521Z,9.23
2018-02-25T07:50:18.005Z,9.13
2018-02-25T07:52:45.518Z,9.50
2018-02-25T07:55:13.141Z,10.03
2018-02-25T07:57:40.628Z,9.30
2018-02-25T08:00:08.075Z,9.37
2018-02-25T08:02:35.546Z,9.20
2018-02-25T08:05:03.112Z,9.17
2018-02-25T08:07:30.560Z,9.43
2018-02-25T08:09:58.016Z,10.43
2018-02-25T08:12:25.502Z,9.63
2018-02-25T08:14:53.087Z,10.37
2018-02-25T08:17:20.576Z,9.37
2018-02-25T08:19:48.048Z,8.90
2018-02-25T08:22:15.528Z,9.60
2018-02-25T08:24:43.026Z,8.73
2018-02-25T08:27:10.490Z,9.40
2018-02-25T08:29:37.946Z,8.83
2018-02-25T08:32:05.665Z,9.30
2018-02-25T08:34:33.477Z,8.30
2018-02-25T08:37:00.950Z,8.27
2018-02-25T08:39:28.518Z,9.60
2018-02-25T08:41:56.341Z,8.93
2018-02-25T08:44:23.855Z,9.03
2018-02-25T08:46:51.350Z,7.93
2018-02-25T08:49:18.910Z,8.40
2018-02-25T08:51:46.380Z,8.40
2018-02-25T08:54:13.854Z,9.27
2018-02-25T08:56:41.460Z,8.07
2018-02-25T08:59:09.064Z,8.70
2018-02-25T09:01:36.558Z,8.27
2018-02-25T09:04:04.032Z,8.00
2018-02-25T09:06:31.574Z,8.03
2018-02-25T09:08:59.164Z,8.07
2018-02-25T09:11:26.646Z,8.10
2018-02-25T09:13:54.204Z,8.63
2018-02-25T09:16:21.677Z,8.20
2018-02-25T09:18:49.350Z,8.13
2018-02-25T09:21:16.843Z,8.27
2018-02-25T09:23:44.360Z,7.73
2018-02-25T09:26:11.944Z,8.67
2018-02-25T09:28:39.785Z,8.50
2018-02-25T09:31:07.346Z,7.43
2018-02-25T09:33:34.802Z,7.20
2018-02-25T09:36:02.284Z,7.27
2018-02-25T09:38:29.730Z,7.00
2018-02-25T09:40:57.206Z,7.30
2018-02-25T09:43:24.786Z,7.47
2018-02-25T09:45:52.336Z,7.33
2018-02-25T09:48:19.794Z,7.43
2018-02-25T09:50:47.336Z,7.10
2018-02-25T09:53:15.028Z,6.80
2018-02-25T09:55:42.550Z,6.20
2018-02-25T09:58:10.113Z,7.18
2018-02-25T10:00:37.875Z,7.57
2018-02-25T10:03:05.438Z,7.30
2018-02-25T10:05:33.066Z,7.28
2018-02-25T10:08:00.627Z,6.60
2018-02-25T10:10:28.679Z,6.93
2018-02-25T10:12:56.231Z,8.60
2018-02-25T10:15:23.709Z,7.40
2018-02-25T10:17:51.171Z,7.07
2018-02-25T10:20:19.673Z,10.70
2018-02-25T10:22:47.193Z,8.38
2018-02-25T10:25:15.854Z,7.03
2018-02-25T10:27:43.978Z,7.10
2018-02-25T10:30:11.555Z,7.72
2018-02-25T10:32:39.092Z,10.55
2018-02-25T10:35:06.685Z,7.85
2018-02-25T10:37:34.618Z,6.50
2018-02-25T10:40:02.099Z,6.87
2018-02-25T10:42:29.771Z,6.40
2018-02-25T10:44:57.361Z,6.12
2018-02-25T10:47:24.889Z,6.80
2018-02-25T10:49:52.392Z,6.07
2018-02-25T10:52:20.173Z,6.33
2018-02-25T10:54:47.847Z,6.30
2018-02-25T10:57:15.467Z,6.43
2018-02-25T10:59:43.037Z,6.00
2018-02-25T11:02:10.526Z,5.97
2018-02-25T11:04:38.101Z,6.50
2018-02-25T11:07:05.913Z,6.03
2018-02-25T11:09:33.598Z,6.20
2018-02-25T11:12:02.105Z,6.30
2018-02-25T11:14:29.662Z,5.70
2018-02-25T11:16:57.261Z,5.53
2018-02-25T11:19:24.820Z,5.80
2018-02-25T11:21:52.321Z,5.97
2018-02-25T11:24:19.941Z,5.27
2018-02-25T11:26:47.495Z,5.40
2018-02-25T11:29:15.061Z,5.77
2018-02-25T11:31:42.646Z,5.50
2018-02-25T11:34:10.318Z,5.73
2018-02-25T11:36:37.894Z,5.17
2018-02-25T11:39:05.417Z,5.73
2018-02-25T11:41:32.928Z,5.63
2018-02-25T11:44:00.719Z,5.57
2018-02-25T11:46:28.260Z,5.10
2018-02-25T11:48:55.815Z,5.47
2018-02-25T11:51:23.337Z,5.50
2018-02-25T11:53:50.957Z,5.90
2018-02-25T11:56:18.546Z,5.60
2018-02-25T11:58:46.045Z,5.70
2018-02-25T12:01:14.007Z,6.23
2018-02-25T12:03:41.551Z,5.53
2018-02-25T12:06:09.135Z,5.67
2018-02-25T12:08:36.611Z,5.40
2018-02-25T12:11:04.091Z,5.50
2018-02-25T12:13:31.648Z,5.40
2018-02-25T12:15:59.147Z,5.70
2018-02-25T12:18:26.685Z,4.97
2018-02-25T12:20:54.165Z,5.03
2018-02-25T12:23:21.706Z,5.30
2018-02-25T12:25:49.209Z,5.23
2018-02-25T12:28:16.798Z,8.90
2018-02-25T12:30:44.333Z,5.40
2018-02-25T12:33:11.813Z,5.10
2018-02-25T12:35:39.505Z,4.93
2018-02-25T12:38:07.104Z,4.30
2018-02-25T12:40:34.690Z,4.87
2018-02-25T12:43:03.222Z,4.90
2018-02-25T12:45:30.724Z,4.63
2018-02-25T12:47:58.295Z,5.37
2018-02-25T12:50:25.889Z,5.00
2018-02-25T12:52:53.662Z,5.40
2018-02-25T12:55:21.487Z,5.00
2018-02-25T12:57:48.938Z,5.10
2018-02-25T13:00:16.481Z,4.80
2018-02-25T13:02:43.987Z,4.90
2018-02-25T13:05:11.505Z,4.60
2018-02-25T13:07:39.267Z,4.93
2018-02-25T13:10:06.994Z,4.70
2018-02-25T13:12:34.491Z,4.10
2018-02-25T13:15:02.039Z,4.90
2018-02-25T13:17:29.868Z,4.43
2018-02-25T13:19:57.489Z,4.27
2018-02-25T13:22:25.080Z,4.60
2018-02-25T13:24:53.083Z,4.80
2018-02-25T13:27:20.875Z,4.53
2018-02-25T13:29:48.488Z,4.20
2018-02-25T13:32:17.532Z,4.70
2018-02-25T13:34:45.050Z,4.90
2018-02-25T13:37:12.564Z,4.70
2018-02-25T13:39:40.195Z,4.80
2018-02-25T13:42:07.851Z,4.30
2018-02-25T13:44:35.488Z,4.77
2018-02-25T13:47:03.767Z,4.67
2018-02-25T13:49:31.446Z,4.90
2018-02-25T13:51:59.075Z,4.50
2018-02-25T13:54:26.708Z,4.47
2018-02-25T13:56:54.259Z,4.30
2018-02-25T13:59:21.869Z,4.30
2018-02-25T14:01:49.409Z,4.53
2018-02-25T14:04:17.254Z,4.60
2018-02-25T14:06:45.019Z,4.93
2018-02-25T14:09:12.602Z,6.30
2018-02-25T14:11:40.221Z,4.73
2018-02-25T14:14:07.989Z,4.47
2018-02-25T14:16:35.651Z,4.60
2018-02-25T14:19:03.138Z,4.67
2018-02-25T14:21:30.676Z,4.70
2018-02-25T14:23:58.571Z,4.53
2018-02-25T14:26:26.232Z,5.63
2018-02-25T14:28:54.626Z,4.53
2018-02-25T14:31:23.111Z,4.70
2018-02-25T14:33:50.616Z,4.60
2018-02-25T14:36:18.153Z,4.50
2018-02-25T14:38:45.751Z,5.20
2018-02-25T14:41:13.325Z,5.60
2018-02-25T14:43:41.126Z,5.00
2018-02-25T14:46:08.687Z,4.67
2018-02-25T14:48:36.493Z,4.97
2018-02-25T14:51:06.874Z,5.10
2018-02-25T14:53:36.637Z,4.60
2018-02-25T14:56:04.450Z,5.03
2018-02-25T14:58:32.000Z,5.23
2018-02-25T15:00:59.780Z,5.27
2018-02-25T15:03:27.855Z,5.30
2018-02-25T15:05:57.466Z,5.10
2018-02-25T15:08:25.323Z,5.43
2018-02-25T15:10:53.422Z,6.83
2018-02-25T15:13:20.950Z,5.87
2018-02-25T15:15:48.448Z,5.93
2018-02-25T15:18:19.039Z,5.60
2018-02-25T15:20:46.878Z,6.27
2018-02-25T15:23:14.728Z,5.67
2018-02-25T15:25:43.522Z,5.10
2018-02-25T15:28:11.396Z,5.60
2018-02-25T15:30:40.122Z,5.43
2018-02-25T15:33:07.686Z,5.43
2018-02-25T15:35:35.289Z,5.67
2018-02-25T15:38:06.390Z,5.40
2018-02-25T15:40:35.814Z,6.00
2018-02-25T15:43:04.641Z,6.00
2018-02-25T15:45:32.714Z,6.23
2018-02-25T15:48:00.990Z,5.90
2018-02-25T15:50:31.845Z,5.60
2018-02-25T15:52:59.809Z,5.17
2018-02-25T15:55:28.888Z,5.20
2018-02-25T15:57:57.373Z,4.87
2018-02-25T16:00:25.067Z,5.27
2018-02-25T16:02:53.778Z,5.30
2018-02-25T16:05:22.405Z,5.77
2018-02-25T16:07:50.261Z,5.63
2018-02-25T16:10:17.884Z,5.80
2018-02-25T16:12:46.975Z,5.23
2018-02-25T16:15:14.500Z,4.60
2018-02-25T16:17:42.091Z,4.90
2018-02-25T16:20:11.550Z,5.90
2018-02-25T16:22:45.303Z,5.47
2018-02-25T16:25:13.106Z,6.03
2018-02-25T16:27:45.311Z,6.23
2018-02-25T16:30:13.014Z,5.27
2018-02-25T16:32:40.736Z,5.60
2018-02-25T16:35:08.560Z,4.93
2018-02-25T16:37:37.396Z,5.50
2018-02-25T16:40:05.261Z,5.30
2018-02-25T16:42:32.840Z,6.23
2018-02-25T16:45:01.805Z,4.87
2018-02-25T16:47:30.398Z,4.93
2018-02-25T16:49:58.680Z,5.17
2018-02-25T16:52:26.301Z,5.53
2018-02-25T16:54:54.498Z,5.87
2018-02-25T16:57:22.449Z,5.53
2018-02-25T16:59:50.281Z,4.70
2018-02-25T17:02:17.810Z,6.20
2018-02-25T17:04:45.738Z,6.40
2018-02-25T17:07:14.073Z,7.00
2018-02-25T17:09:41.724Z,5.30
2018-02-25T17:12:09.651Z,5.77
2018-02-25T17:14:37.253Z,5.53
2018-02-25T17:17:04.777Z,5.20
2018-02-25T17:19:32.364Z,5.57
2018-02-25T17:21:59.837Z,5.23
2018-02-25T17:24:27.398Z,5.77
2018-02-25T17:26:55.361Z,5.20
2018-02-25T17:29:22.932Z,5.60
2018-02-25T17:31:50.534Z,5.60
2018-02-25T17:34:21.006Z,5.47
2018-02-25T17:36:49.516Z,6.00
2018-02-25T17:39:17.040Z,5.20
2018-02-25T17:41:44.588Z,5.73
2018-02-25T17:44:12.054Z,5.50
2018-02-25T17:46:39.664Z,6.10
2018-02-25T17:49:07.212Z,6.00
2018-02-25T17:51:34.800Z,6.00
2018-02-25T17:54:02.360Z,5.90
2018-02-25T17:56:29.872Z,6.07
2018-02-25T17:58:57.449Z,6.10
2018-02-25T18:01:25.430Z,7.30
2018-02-25T18:03:52.922Z,7.60
2018-02-25T18:06:20.471Z,6.97
2018-02-25T18:08:48.077Z,6.17
2018-02-25T18:11:15.726Z,5.77
2018-02-25T18:13:43.295Z,6.03
2018-02-25T18:16:10.958Z,7.03
2018-02-25T18:18:38.583Z,5.80
2018-02-25T18:21:06.837Z,6.27
2018-02-25T18:23:34.442Z,6.20
2018-02-25T18:26:02.086Z,6.67
2018-02-25T18:28:29.576Z,6.83
2018-02-25T18:30:57.126Z,7.20
2018-02-25T18:33:24.619Z,7.20
2018-02-25T18:35:52.110Z,6.27
2018-02-25T18:38:19.700Z,7.93
2018-02-25T18:40:47.168Z,7.93
2018-02-25T18:43:14.763Z,7.63
2018-02-25T18:45:42.300Z,6.90
2018-02-25T18:48:09.808Z,6.60
2018-02-25T18:50:37.404Z,6.50
2018-02-25T18:53:04.884Z,6.47
2018-02-25T18:55:32.486Z,6.63
2018-02-25T18:58:00.119Z,6.80
2018-02-25T19:00:27.624Z,6.40
2018-02-25T19:03:00.950Z,7.17
2018-02-25T19:05:28.474Z,6.97
2018-02-25T19:07:56.289Z,6.33
2018-02-25T19:10:23.775Z,6.93
2018-02-25T19:12:51.338Z,7.30
2018-02-25T19:15:18.833Z,6.73
2018-02-25T19:17:46.332Z,6.63
2018-02-25T19:20:13.834Z,7.53
2018-02-25T19:22:41.339Z,7.40
2018-02-25T19:25:08.850Z,7.10
2018-02-25T19:27:36.454Z,7.93
2018-02-25T19:30:04.047Z,6.80
2018-02-25T19:32:31.563Z,7.17
2018-02-25T19:34:59.040Z,7.53
2018-02-25T19:37:32.173Z,7.30
2018-02-25T19:40:01.638Z,7.50
2018-02-25T19:42:29.210Z,7.37
2018-02-25T19:44:56.755Z,7.97
2018-02-25T19:47:24.434Z,7.80
2018-02-25T19:49:52.233Z,7.23
2018-02-25T19:52:19.870Z,8.47
2018-02-25T19:54:48.258Z,7.00
2018-02-25T19:57:15.864Z,7.63
2018-02-25T19:59:43.449Z,7.80
2018-02-25T20:02:11.103Z,7.43
2018-02-25T20:04:38.611Z,8.37
2018-02-25T20:07:06.209Z,7.57
2018-02-25T20:09:33.758Z,7.70
2018-02-25T20:12:01.325Z,8.73
2018-02-25T20:14:28.827Z,8.30
2018-02-25T20:16:56.475Z,7.63
2018-02-25T20:19:24.033Z,7.60
2018-02-25T20:21:51.563Z,7.60
2018-02-25T20:24:19.137Z,8.50
2018-02-25T20:26:46.723Z,7.67
2018-02-25T20:29:14.656Z,7.53
2018-02-25T20:31:42.201Z,7.27
2018-02-25T20:34:09.726Z,7.23
2018-02-25T20:36:37.262Z,8.20
2018-02-25T20:39:04.801Z,7.57
2018-02-25T20:41:32.390Z,8.33
2018-02-25T20:44:01.182Z,7.63
2018-02-25T20:46:32.598Z,7.20
2018-02-25T20:49:01.578Z,6.83
2018-02-25T20:51:30.273Z,7.17
2018-02-25T20:53:58.009Z,8.23
2018-02-25T20:56:26.888Z,7.13
2018-02-25T20:58:54.497Z,7.53
2018-02-25T21:01:22.052Z,7.87
2018-02-25T21:03:51.237Z,7.23
2018-02-25T21:06:19.203Z,7.33
2018-02-25T21:08:46.802Z,7.43
2018-02-25T21:11:17.778Z,8.10
2018-02-25T21:13:45.953Z,7.63
2018-02-25T21:16:13.589Z,7.83
2018-02-25T21:18:41.164Z,7.67
2018-02-25T21:21:09.106Z,7.30
2018-02-25T21:23:36.818Z,7.60
2018-02-25T21:26:04.922Z,7.10
2018-02-25T21:28:33.328Z,8.23
2018-02-25T21:31:03.393Z,8.13
2018-02-25T21:33:31.496Z,7.87
2018-02-25T21:35:59.805Z,7.40
2018-02-25T21:38:28.571Z,8.10
2018-02-25T21:40:56.401Z,7.57
2018-02-25T21:43:23.964Z,7.40
2018-02-25T21:45:51.682Z,7.50
2018-02-25T21:48:19.775Z,7.53
2018-02-25T21:50:47.549Z,7.50
2018-02-25T21:53:15.124Z,8.50
2018-02-25T21:55:48.371Z,7.67
2018-02-25T22:01:24.143Z,7.80
2018-02-25T22:03:58.565Z,7.83
2018-02-25T22:06:26.231Z,8.20
2018-02-25T22:08:53.733Z,8.00
2018-02-25T22:11:21.308Z,8.23
2018-02-25T22:13:48.851Z,7.80
2018-02-25T22:16:17.788Z,8.30
2018-02-25T22:18:45.506Z,8.47
2018-02-25T22:21:12.969Z,8.53
2018-02-25T22:23:40.461Z,8.10
2018-02-25T22:26:07.919Z,9.70
2018-02-25T22:28:35.389Z,8.80
2018-02-25T22:31:02.846Z,7.90
2018-02-25T22:33:30.325Z,9.43
2018-02-25T22:35:57.889Z,9.00
2018-02-25T22:38:25.365Z,9.67
2018-02-25T22:40:52.824Z,8.63
2018-02-25T22:43:20.313Z,7.40
2018-02-25T22:45:47.826Z,8.43
2018-02-25T22:48:15.355Z,8.83
2018-02-25T22:50:42.859Z,9.03
2018-02-25T22:53:10.577Z,9.13
2018-02-25T22:55:38.640Z,9.37
2018-02-25T22:58:06.345Z,9.03
2018-02-25T23:00:33.928Z,7.90
2018-02-25T23:03:01.387Z,8.53
2018-02-25T23:05:28.844Z,8.80
2018-02-25T23:07:56.595Z,8.53
2018-02-25T23:10:24.053Z,8.17
2018-02-25T23:12:56.627Z,8.70
2018-02-25T23:15:24.172Z,8.60
2018-02-25T23:32:09.766Z,7.90
2018-02-25T23:34:37.464Z,8.13
2018-02-25T23:37:04.909Z,8.07
2018-02-25T23:39:32.375Z,9.13
2018-02-25T23:41:59.850Z,8.90
2018-02-25T23:44:27.286Z,8.57
2018-02-25T23:46:54.753Z,9.13
2018-02-25T23:49:22.299Z,8.67
2018-02-25T23:51:50.069Z,8.20
2018-02-25T23:54:18.241Z,8.90
2018-02-25T23:56:45.684Z,8.40
2018-02-25T23:59:14.515Z,7.93
